Impacts METAR Board
IDs:

KCXO - Conroe/Executive Arp, TX, US

Updated at: 1900 UTC 22 Sep 2020
Potential Impact None Slight Moderate High
Time 22/07Z 22/08Z 22/09Z 22/10Z 22/11Z 22/12Z 22/13Z 22/14Z 22/15Z 22/16Z 22/17Z 22/18Z 22/19Z
Temp72 72 72 72 72 72 72 72 72 72 73 74 74
Dewpt70 70 70 70 70 70 70 70 70 71 71 72 73
Altim29.94 29.93 29.92 29.91 29.92 29.92 29.93 29.94 29.95 29.95 29.94 29.91 29.89
VIS10 6 8 10 6 7 8 8 10 8 4 9 8
CIG6 5 5 8 6 9 9 7 6 6 6 6 6
CoverOVCOVCOVCOVCOVCOVCOVCOVCOVCOVCOVCOVCOVC
FltCatIFRIFRIFRIFRIFRIFRIFRIFRIFRIFRIFRIFRIFR
WX---RA BR-RA-RA-RA BRRA-RARA-RA-RARA BR---RA
WDir70806070707060607060606040
WSpd8 8 10 8 10 7 8 8 10 8 9 9 6
WGst-- -- -- -- 18 -- -- -- 16 -- -- -- --
Raw hourly METARs
KCXO 220653Z AUTO 07008KT 10SM OVC006 22/21 A2994 RMK AO2 RAB17E53 SLP137 P0002 T02220211
KCXO 220753Z AUTO 08008KT 6SM -RA BR OVC005 22/21 A2993 RMK AO2 RAB44 SLP133 P0000 T02220211
KCXO 220853Z AUTO 06010KT 8SM -RA OVC005 22/21 A2992 RMK AO2 RAE0757B15 SLP128 P0000 60002 T02220211 58011
KCXO 220953Z AUTO 07008KT 10SM -RA BKN008 OVC013 22/21 A2991 RMK AO2 RAE00B21 SLP125 P0004 T02220211
KCXO 221053Z 07010G18KT 6SM -RA BR OVC006 22/21 A2992 RMK AO2 RAE0958B43 SLP129 P0000 T02220211
KCXO 221153Z 07007KT 7SM RA BKN009 OVC085 22/21 A2992 RMK AO2 SLP128 P0007 60013 70021 T02220211 10222 20222 53001
KCXO 221253Z 06008KT 8SM -RA BKN009 OVC018 22/21 A2993 RMK AO2 CIG 007V013 SLP133 P0006 T02220211
KCXO 221353Z 06008KT 8SM RA OVC007 22/21 A2994 RMK AO2 CIG 005V010 SLP136 P0009 T02220211
KCXO 221453Z 07010G16KT 10SM -RA OVC006 22/21 A2995 RMK AO2 SLP137 P0009 60024 T02220211 51009
KCXO 221553Z 06008KT 8SM -RA BKN006 BKN038 OVC070 22/22 A2995 RMK AO2 SLP139 P0016 T02220217
KCXO 221653Z 06009KT 4SM RA BR OVC006 23/22 A2994 RMK AO2 CIG 004V011 SLP134 P0013 T02280217
KCXO 221753Z 06009KT 9SM OVC006 23/22 A2991 RMK AO2 RAE39 SLP127 P0003 60056 T02330222 10233 20222 58011
KCXO 221853Z 04006KT 8SM -RA BKN006 OVC011 23/23 A2989 RMK AO2 RAB25 SLP119 P0004 T02330228



Page loaded:  19:51 UTC  |   12:51 PM Pacific  |   01:51 PM Mountain  |   02:51 PM Central  |   03:51 PM Eastern

 

ADVISORIES

FORECASTS

FORECASTS

OBSERVATIONS

USER TOOLS

ABOUT US